createdAt,value
2019-01-30T00:05:20.022Z,24.5
2019-01-30T00:10:42.730Z,22.9
2019-01-30T00:16:06.062Z,19.5
2019-01-30T00:21:28.957Z,24.200001
2019-01-30T00:26:51.566Z,20
2019-01-30T00:32:15.100Z,19.799999
2019-01-30T00:37:47.348Z,21.1
2019-01-30T00:43:10.154Z,19.5
2019-01-30T00:48:33.035Z,19.4
2019-01-30T00:53:55.772Z,18.700001
2019-01-30T00:59:19.384Z,18.700001
2019-01-30T01:04:42.260Z,17
2019-01-30T01:10:05.035Z,17.200001
2019-01-30T01:15:28.662Z,16.200001
2019-01-30T01:20:51.693Z,13
2019-01-30T01:26:14.386Z,14.6
2019-01-30T01:31:37.128Z,13.7
2019-01-30T01:37:00.342Z,13.2
2019-01-30T01:42:23.153Z,12.7
2019-01-30T01:47:55.528Z,15.7
2019-01-30T01:53:18.262Z,12.2
2019-01-30T01:58:41.019Z,12.3
2019-01-30T02:04:03.795Z,11.4
2019-01-30T02:09:27.406Z,15.4
2019-01-30T02:14:50.265Z,13.8
2019-01-30T02:20:12.976Z,11.6
2019-01-30T02:25:35.759Z,16.299999
2019-01-30T02:30:58.415Z,12.5
2019-01-30T02:36:21.329Z,14.1
2019-01-30T02:41:44.017Z,14.1
2019-01-30T02:47:06.914Z,14.7
2019-01-30T02:52:30.670Z,13.4
2019-01-30T02:58:02.370Z,13
2019-01-30T03:03:25.295Z,14.9
2019-01-30T03:08:48.120Z,13
2019-01-30T03:14:10.795Z,14.8
2019-01-30T03:19:34.607Z,12
2019-01-30T03:25:06.155Z,13
2019-01-30T03:30:29.341Z,15
2019-01-30T03:35:52.677Z,12.7
2019-01-30T03:41:15.630Z,10.2
2019-01-30T03:46:38.283Z,11
2019-01-30T03:52:01.051Z,12.9
2019-01-30T03:57:24.244Z,10.7
2019-01-30T04:02:47.946Z,12.2
2019-01-30T04:08:10.775Z,12.8
2019-01-30T04:13:33.574Z,10.1
2019-01-30T04:18:56.612Z,9.7
2019-01-30T04:24:19.379Z,10.4
2019-01-30T04:29:42.063Z,11.6
2019-01-30T04:35:04.770Z,10.1
2019-01-30T04:40:27.466Z,11.3
2019-01-30T04:45:50.182Z,12.1
2019-01-30T04:51:12.947Z,9.8
2019-01-30T04:56:35.616Z,11.4
2019-01-30T05:01:58.314Z,12.2
2019-01-30T05:07:21.127Z,12.1
2019-01-30T05:12:43.939Z,11.8
2019-01-30T05:18:06.656Z,12.5
2019-01-30T05:23:29.445Z,11.9
2019-01-30T05:28:52.554Z,13.5
2019-01-30T05:34:15.250Z,11.4
2019-01-30T05:39:37.979Z,11
2019-01-30T05:45:00.723Z,9.6
2019-01-30T05:50:23.511Z,10.1
2019-01-30T05:55:56.776Z,9.4
2019-01-30T06:01:19.438Z,9.1
2019-01-30T06:06:42.408Z,11.5
2019-01-30T06:12:14.677Z,9.3
2019-01-30T06:17:47.721Z,7.7
2019-01-30T06:23:48.117Z,10.1
2019-01-30T06:29:20.101Z,8.1
2019-01-30T06:34:42.838Z,8.8
2019-01-30T06:40:05.573Z,8.8
2019-01-30T06:45:37.862Z,10.2
2019-01-30T06:51:00.526Z,12.9
2019-01-30T06:56:32.342Z,9.2
2019-01-30T07:02:04.433Z,12.3
2019-01-30T07:07:40.363Z,9.9
2019-01-30T07:13:12.212Z,8.5
2019-01-30T07:18:35.573Z,9.7
2019-01-30T07:23:58.369Z,10.2
2019-01-30T07:29:33.423Z,9.8
2019-01-30T07:34:56.134Z,9.4
2019-01-30T07:40:18.820Z,8.9
2019-01-30T07:45:51.079Z,9.8
2019-01-30T07:51:23.408Z,12.5
2019-01-30T07:56:55.557Z,7.6
2019-01-30T08:02:27.858Z,10.5
2019-01-30T08:08:00.801Z,8.5
2019-01-30T08:13:33.208Z,6.8
2019-01-30T08:18:56.029Z,11.8
2019-01-30T08:24:29.456Z,9.3
2019-01-30T08:29:52.240Z,7
2019-01-30T08:35:15.042Z,9.4
2019-01-30T08:40:45.937Z,9.8
2019-01-30T08:46:17.701Z,8.6
2019-01-30T08:51:40.695Z,10.2
2019-01-30T08:57:14.421Z,16.700001
2019-01-30T09:02:37.029Z,11.1
2019-01-30T09:08:00.665Z,7.4
2019-01-30T09:13:25.606Z,6.2
2019-01-30T09:18:46.115Z,7.1
2019-01-30T09:24:08.951Z,6.3
2019-01-30T09:29:32.305Z,5.8
2019-01-30T09:34:55.065Z,8.1
2019-01-30T09:40:17.746Z,8
2019-01-30T09:45:40.544Z,7.1
2019-01-30T09:51:03.359Z,9.7
2019-01-30T09:56:26.147Z,7
2019-01-30T10:01:48.923Z,10.2
2019-01-30T10:07:11.704Z,7.3
2019-01-30T10:12:34.634Z,8.5
2019-01-30T10:17:57.516Z,7.7
2019-01-30T10:23:21.817Z,8.8
2019-01-30T10:28:54.466Z,9.4
2019-01-30T10:34:17.139Z,9.1
2019-01-30T10:39:40.255Z,8.8
2019-01-30T10:45:02.893Z,11.9
2019-01-30T10:50:25.683Z,7.6
2019-01-30T10:55:49.752Z,9.5
2019-01-30T11:01:13.412Z,9.7
2019-01-30T11:06:36.387Z,8.4
2019-01-30T11:11:59.961Z,7
2019-01-30T11:17:24.101Z,8.2
2019-01-30T11:22:47.143Z,10
2019-01-30T11:28:12.927Z,7.9
2019-01-30T11:33:36.236Z,8.3
2019-01-30T11:38:59.365Z,8.2
2019-01-30T11:44:22.190Z,7.9
2019-01-30T11:49:47.375Z,8.3
2019-01-30T11:55:10.701Z,7.8
2019-01-30T12:00:33.770Z,8.2
2019-01-30T12:05:56.891Z,10.3
2019-01-30T12:11:20.094Z,9.3
2019-01-30T12:16:47.067Z,11.1
2019-01-30T12:22:11.094Z,13.4
2019-01-30T12:27:34.918Z,10.4
2019-01-30T12:32:57.920Z,11.6
2019-01-30T12:38:20.805Z,12.8
2019-01-30T12:43:45.499Z,10.6
2019-01-30T12:49:08.010Z,12.1
2019-01-30T12:54:31.003Z,12.2
2019-01-30T12:59:54.711Z,12.9
2019-01-30T13:05:17.422Z,13.7
2019-01-30T13:10:40.795Z,11.9
2019-01-30T13:16:04.043Z,11.5
2019-01-30T13:21:38.922Z,13.9
2019-01-30T13:27:11.972Z,14
2019-01-30T13:32:43.584Z,16.700001
2019-01-30T13:38:06.699Z,13.1
2019-01-30T13:43:38.547Z,15
2019-01-30T13:49:01.350Z,13.7
2019-01-30T13:54:24.099Z,13.3
2019-01-30T13:59:47.143Z,12
2019-01-30T14:05:09.845Z,15.5
2019-01-30T14:10:33.568Z,14.3
2019-01-30T14:15:56.358Z,15.5
2019-01-30T14:21:19.131Z,13.5
2019-01-30T14:26:41.937Z,15.5
2019-01-30T14:32:05.519Z,12.4
2019-01-30T14:37:28.509Z,13
2019-01-30T14:42:51.400Z,14.7
2019-01-30T14:48:14.237Z,15
2019-01-30T14:53:37.381Z,13.8
2019-01-30T14:59:00.213Z,13.8
2019-01-30T15:04:22.867Z,15
2019-01-30T15:09:46.551Z,13.1
2019-01-30T15:15:09.386Z,14.7
2019-01-30T15:20:32.147Z,13.9
2019-01-30T15:25:54.874Z,15
2019-01-30T15:31:17.959Z,19.299999
2019-01-30T15:36:40.738Z,15
2019-01-30T15:42:03.977Z,13.3
2019-01-30T15:47:26.665Z,14.5
2019-01-30T15:52:49.475Z,17
2019-01-30T15:58:12.298Z,15.2
2019-01-30T16:03:35.145Z,14.7
2019-01-30T16:08:58.080Z,18
2019-01-30T16:14:21.101Z,16.5
2019-01-30T16:19:43.933Z,15.9
2019-01-30T16:25:08.901Z,19.200001
2019-01-30T16:30:29.567Z,16.799999
2019-01-30T16:35:55.869Z,17.4
2019-01-30T16:41:16.941Z,18.299999
2019-01-30T16:46:39.854Z,20.1
2019-01-30T16:52:02.653Z,19.4
2019-01-30T16:57:25.446Z,18.9
2019-01-30T17:02:48.444Z,19.6
2019-01-30T17:08:11.355Z,28.5
2019-01-30T17:13:34.142Z,23.6
2019-01-30T17:19:05.713Z,19.5
2019-01-30T17:24:28.756Z,25.5
2019-01-30T17:29:52.217Z,22.5
2019-01-30T17:35:15.585Z,26.799999
2019-01-30T17:40:38.440Z,26
2019-01-30T17:46:01.263Z,27.5
2019-01-30T17:51:24.738Z,28.9
2019-01-30T17:56:47.714Z,27.799999
2019-01-30T18:02:10.672Z,33.700001
2019-01-30T18:07:34.120Z,35.099998
2019-01-30T18:12:57.370Z,34.700001
2019-01-30T18:18:20.121Z,41.599998
2019-01-30T18:23:45.466Z,41
2019-01-30T18:29:08.253Z,35.700001
2019-01-30T18:34:31.355Z,39.400002
2019-01-30T18:39:54.238Z,42.700001
2019-01-30T18:45:16.931Z,48.900002
2019-01-30T18:50:39.942Z,40.5
2019-01-30T18:56:02.603Z,47.299999
2019-01-30T19:01:26.361Z,54
2019-01-30T19:06:52.177Z,47.700001
2019-01-30T19:12:12.915Z,46
2019-01-30T19:17:36.747Z,50.900002
2019-01-30T19:22:59.608Z,49
2019-01-30T19:28:23.359Z,54.900002
2019-01-30T19:33:46.230Z,48.900002
2019-01-30T19:39:09.242Z,46.900002
2019-01-30T19:44:32.075Z,46.700001
2019-01-30T19:50:05.563Z,48.900002
2019-01-30T19:55:38.772Z,51.400002
2019-01-30T20:01:01.927Z,52.200001
2019-01-30T20:06:25.306Z,53.200001
2019-01-30T20:12:00.438Z,55.5
2019-01-30T20:17:23.369Z,52.599998
2019-01-30T20:22:56.591Z,52.700001
2019-01-30T20:28:28.517Z,56.299999
2019-01-30T20:34:09.901Z,66.199997
2019-01-30T20:39:53.199Z,59.299999
2019-01-30T20:45:33.248Z,57.700001
2019-01-30T20:50:50.649Z,62.5
2019-01-30T20:56:22.781Z,60.400002
2019-01-30T21:01:45.813Z,54.099998
2019-01-30T21:07:08.941Z,58.099998
2019-01-30T21:12:33.695Z,56.200001
2019-01-30T21:17:56.771Z,59.400002
2019-01-30T21:23:19.894Z,56.599998
2019-01-30T21:28:42.945Z,57.099998
2019-01-30T21:34:05.999Z,61.599998
2019-01-30T21:39:29.218Z,60.099998
2019-01-30T21:44:52.228Z,60.900002
2019-01-30T21:50:26.550Z,69
2019-01-30T21:55:59.158Z,63.900002
2019-01-30T22:01:32.121Z,64.199997
2019-01-30T22:07:22.492Z,69.199997
2019-01-30T22:12:45.489Z,71.599998
2019-01-30T22:18:08.262Z,67.099998
2019-01-30T22:23:31.708Z,70.599998
2019-01-30T22:28:55.042Z,72
2019-01-30T22:34:27.656Z,77.400002
2019-01-30T22:40:01.748Z,75.400002
2019-01-30T22:45:34.142Z,74.300003
2019-01-30T22:50:57.631Z,78.900002
2019-01-30T22:56:20.448Z,81.699997
2019-01-30T23:01:43.409Z,82
2019-01-30T23:07:06.124Z,83.400002
2019-01-30T23:12:39.635Z,86.199997
2019-01-30T23:18:02.564Z,81.199997
2019-01-30T23:23:34.895Z,90.5
2019-01-30T23:28:59.216Z,86.900002
2019-01-30T23:34:34.024Z,90.800003
2019-01-30T23:39:56.674Z,96
2019-01-30T23:45:19.333Z,98
2019-01-30T23:50:42.261Z,91.400002
2019-01-30T23:56:14.985Z,91
